createdAt,value
2019-04-01T00:02:01.746Z,36.10
2019-04-01T00:04:30.190Z,36.10
2019-04-01T00:06:58.641Z,36.10
2019-04-01T00:09:27.398Z,35.90
2019-04-01T00:11:55.847Z,36.10
2019-04-01T00:14:24.326Z,35.00
2019-04-01T00:16:53.168Z,35.40
2019-04-01T00:19:21.620Z,36.10
2019-04-01T00:21:50.436Z,35.80
2019-04-01T00:24:18.891Z,37.00
2019-04-01T00:26:47.345Z,36.50
2019-04-01T00:29:15.827Z,35.10
2019-04-01T00:31:44.670Z,34.90
2019-04-01T00:34:13.241Z,35.60
2019-04-01T00:36:41.733Z,36.00
2019-04-01T00:39:10.192Z,36.30
2019-04-01T00:41:46.125Z,36.50
2019-04-01T00:44:14.943Z,36.20
2019-04-01T00:46:43.396Z,36.10
2019-04-01T00:49:12.205Z,36.10
2019-04-01T00:51:40.653Z,36.30
2019-04-01T00:54:09.130Z,36.10
2019-04-01T00:56:37.980Z,36.50
2019-04-01T00:59:06.425Z,36.10
2019-04-01T01:01:34.895Z,36.60
2019-04-01T01:04:03.335Z,36.20
2019-04-01T01:06:31.782Z,36.10
2019-04-01T01:09:00.320Z,36.50
2019-04-01T01:11:28.770Z,36.60
2019-04-01T01:13:57.213Z,37.40
2019-04-01T01:16:25.669Z,36.70
2019-04-01T01:18:54.102Z,36.80
2019-04-01T01:21:22.573Z,37.00
2019-04-01T01:23:51.349Z,38.10
2019-04-01T01:26:19.866Z,36.50
2019-04-01T01:28:48.334Z,36.10
2019-04-01T01:31:16.775Z,36.00
2019-04-01T01:33:45.702Z,36.30
2019-04-01T01:36:14.088Z,36.80
2019-04-01T01:38:42.593Z,36.40
2019-04-01T01:41:11.105Z,36.40
2019-04-01T01:43:39.552Z,36.30
2019-04-01T01:46:07.977Z,35.70
2019-04-01T01:48:36.472Z,36.30
2019-04-01T01:51:04.910Z,36.40
2019-04-01T01:53:33.741Z,35.60
2019-04-01T01:56:02.181Z,36.20
2019-04-01T01:58:30.631Z,35.90
2019-04-01T02:00:59.106Z,37.00
2019-04-01T02:03:27.545Z,36.30
2019-04-01T02:05:56.347Z,36.40
2019-04-01T02:08:25.140Z,36.30
2019-04-01T02:10:54.058Z,36.10
2019-04-01T02:13:22.502Z,35.60
2019-04-01T02:15:50.970Z,34.80
2019-04-01T02:18:19.419Z,35.40
2019-04-01T02:20:47.894Z,36.70
2019-04-01T02:23:16.338Z,36.50
2019-04-01T02:25:44.854Z,36.10
2019-04-01T02:28:13.334Z,37.20
2019-04-01T02:30:42.080Z,37.10
2019-04-01T02:33:10.888Z,36.80
2019-04-01T02:35:39.357Z,36.70
2019-04-01T02:38:07.802Z,36.20
2019-04-01T02:40:36.626Z,35.90
2019-04-01T02:43:05.171Z,35.80
2019-04-01T02:45:33.616Z,36.40
2019-04-01T02:48:02.061Z,36.30
2019-04-01T02:50:30.561Z,36.70
2019-04-01T02:52:59.087Z,36.30
2019-04-01T02:55:27.533Z,36.60
2019-04-01T02:57:56.166Z,36.40
2019-04-01T03:00:24.837Z,36.30
2019-04-01T03:02:53.375Z,35.30
2019-04-01T03:05:21.820Z,35.30
2019-04-01T03:07:50.442Z,36.10
2019-04-01T03:10:19.349Z,35.80
2019-04-01T03:12:47.813Z,36.00
2019-04-01T03:15:16.225Z,35.90
2019-04-01T03:17:44.778Z,36.00
2019-04-01T03:20:13.866Z,35.70
2019-04-01T03:22:42.455Z,35.70
2019-04-01T03:25:11.326Z,36.50
2019-04-01T03:27:39.803Z,36.70
2019-04-01T03:30:08.426Z,36.60
2019-04-01T03:32:44.251Z,36.10
2019-04-01T03:35:07.232Z,35.90
2019-04-01T03:37:36.089Z,34.80
2019-04-01T03:40:06.054Z,35.30
2019-04-01T03:42:34.633Z,35.20
2019-04-01T03:45:03.502Z,34.90
2019-04-01T03:47:32.031Z,35.20
2019-04-01T03:50:00.855Z,37.00
2019-04-01T03:52:29.302Z,35.60
2019-04-01T03:54:57.779Z,35.40
2019-04-01T03:57:26.238Z,35.20
2019-04-01T03:59:55.079Z,35.50
2019-04-01T04:02:23.614Z,35.20
2019-04-01T04:04:52.473Z,35.20
2019-04-01T04:07:20.930Z,34.60
2019-04-01T04:09:49.442Z,34.20
2019-04-01T04:12:17.988Z,35.10
2019-04-01T04:14:50.855Z,36.10
2019-04-01T04:17:16.638Z,36.50
2019-04-01T04:19:45.163Z,36.40
2019-04-01T04:22:13.711Z,35.70
2019-04-01T04:24:42.149Z,35.10
2019-04-01T04:27:11.418Z,36.80
2019-04-01T04:29:40.245Z,35.40
2019-04-01T04:32:09.034Z,34.40
2019-04-01T04:34:37.492Z,34.20
2019-04-01T04:37:06.008Z,34.10
2019-04-01T04:39:34.815Z,33.50
2019-04-01T04:42:03.338Z,34.20
2019-04-01T04:44:31.787Z,34.40
2019-04-01T04:47:00.214Z,35.40
2019-04-01T04:49:28.694Z,34.50
2019-04-01T04:51:57.142Z,34.60
2019-04-01T04:54:25.967Z,35.00
2019-04-01T04:56:54.485Z,34.20
2019-04-01T04:59:22.927Z,34.10
2019-04-01T05:01:51.397Z,34.50
2019-04-01T05:04:19.934Z,34.30
2019-04-01T05:06:48.384Z,34.20
2019-04-01T05:09:17.161Z,35.10
2019-04-01T05:11:45.622Z,35.10
2019-04-01T05:14:14.426Z,33.80
2019-04-01T05:16:42.888Z,33.80
2019-04-01T05:19:11.321Z,34.10
2019-04-01T05:21:40.572Z,34.20
2019-04-01T05:24:10.377Z,35.10
2019-04-01T05:26:40.054Z,35.00
2019-04-01T05:29:09.746Z,34.30
2019-04-01T05:31:41.439Z,34.00
2019-04-01T05:34:12.474Z,34.00
2019-04-01T05:36:40.921Z,34.90
2019-04-01T05:39:09.677Z,35.10
2019-04-01T05:41:38.146Z,35.90
2019-04-01T05:44:06.663Z,34.40
2019-04-01T05:46:35.174Z,33.80
2019-04-01T05:49:03.636Z,33.10
2019-04-01T05:51:32.111Z,32.50
2019-04-01T05:54:00.701Z,32.60
2019-04-01T05:56:29.213Z,33.00
2019-04-01T05:58:58.559Z,34.20
2019-04-01T06:01:31.625Z,34.40
2019-04-01T06:04:00.210Z,34.10
2019-04-01T06:06:28.690Z,34.90
2019-04-01T06:08:57.501Z,34.60
2019-04-01T06:11:26.014Z,33.20
2019-04-01T06:13:54.594Z,32.80
2019-04-01T06:16:23.035Z,33.50
2019-04-01T06:18:51.842Z,33.60
2019-04-01T06:21:20.825Z,32.90
2019-04-01T06:23:49.409Z,33.00
2019-04-01T06:26:18.019Z,33.20
2019-04-01T06:28:46.739Z,33.00
2019-04-01T06:31:15.147Z,32.60
2019-04-01T06:33:43.931Z,31.90
2019-04-01T06:36:12.741Z,32.60
2019-04-01T06:38:41.949Z,31.80
2019-04-01T06:41:10.560Z,32.80
2019-04-01T06:43:39.071Z,31.00
2019-04-01T06:46:07.593Z,31.50
2019-04-01T06:48:36.062Z,31.10
2019-04-01T06:51:04.646Z,30.90
2019-04-01T06:53:33.454Z,31.70
2019-04-01T06:56:01.929Z,31.50
2019-04-01T06:58:30.503Z,31.20
2019-04-01T07:00:59.595Z,30.60
2019-04-01T07:03:28.791Z,30.00
2019-04-01T07:05:57.260Z,29.90
2019-04-01T07:08:25.757Z,30.00
2019-04-01T07:10:54.220Z,29.30
2019-04-01T07:13:22.671Z,28.80
2019-04-01T07:15:51.211Z,28.70
2019-04-01T07:18:19.719Z,28.50
2019-04-01T07:20:48.577Z,30.20
2019-04-01T07:23:17.090Z,29.90
2019-04-01T07:25:45.674Z,29.80
2019-04-01T07:28:14.523Z,29.60
2019-04-01T07:30:43.112Z,29.20
2019-04-01T07:33:11.994Z,28.60
2019-04-01T07:35:40.466Z,27.70
2019-04-01T07:38:08.933Z,28.00
2019-04-01T07:40:37.505Z,27.50
2019-04-01T07:43:06.022Z,27.80
2019-04-01T07:45:34.706Z,29.00
2019-04-01T07:48:03.250Z,28.60
2019-04-01T07:50:31.766Z,28.10
2019-04-01T07:53:01.099Z,27.90
2019-04-01T07:55:29.790Z,26.80
2019-04-01T07:57:59.894Z,28.30
2019-04-01T08:00:28.692Z,25.70
2019-04-01T08:02:57.238Z,26.60
2019-04-01T08:05:26.332Z,26.50
2019-04-01T08:07:55.265Z,26.00
2019-04-01T08:10:24.029Z,25.80
2019-04-01T08:12:53.011Z,25.10
2019-04-01T08:15:21.652Z,25.50
2019-04-01T08:17:50.386Z,26.40
2019-04-01T08:20:19.507Z,26.70
2019-04-01T08:22:48.247Z,26.30
2019-04-01T08:25:16.803Z,26.20
2019-04-01T08:27:46.157Z,26.90
2019-04-01T08:30:15.047Z,26.10
2019-04-01T08:32:43.514Z,26.60
2019-04-01T08:35:12.930Z,26.20
2019-04-01T08:37:41.446Z,27.40
2019-04-01T08:40:10.443Z,26.60
2019-04-01T08:42:39.224Z,27.70
2019-04-01T08:45:09.014Z,27.60
2019-04-01T08:47:37.645Z,25.90
2019-04-01T08:50:16.043Z,25.70
2019-04-01T08:52:44.880Z,25.20
2019-04-01T08:55:13.483Z,25.40
2019-04-01T08:57:41.995Z,26.20
2019-04-01T09:00:10.783Z,26.60
2019-04-01T09:02:39.326Z,25.60
2019-04-01T09:05:07.913Z,26.40
2019-04-01T09:07:36.702Z,25.00
2019-04-01T09:10:06.290Z,25.30
2019-04-01T09:12:35.373Z,22.90
2019-04-01T09:15:04.799Z,20.20
2019-04-01T09:17:33.318Z,23.20
2019-04-01T09:20:01.777Z,22.40
2019-04-01T09:22:30.278Z,20.80
2019-04-01T09:24:58.779Z,21.40
2019-04-01T09:27:27.302Z,21.10
2019-04-01T09:29:56.229Z,20.80
2019-04-01T09:32:24.749Z,20.00
2019-04-01T09:34:53.198Z,20.40
2019-04-01T09:37:21.679Z,18.90
2019-04-01T09:39:50.126Z,20.10
2019-04-01T09:42:18.577Z,19.80
2019-04-01T09:44:47.136Z,21.40
2019-04-01T09:47:15.981Z,19.80
2019-04-01T09:49:44.771Z,18.40
2019-04-01T09:52:13.253Z,18.70
2019-04-01T09:54:41.718Z,18.60
2019-04-01T09:57:17.194Z,18.50
2019-04-01T09:59:40.385Z,19.80
2019-04-01T10:02:08.837Z,19.00
2019-04-01T10:04:37.297Z,18.20
2019-04-01T10:07:05.750Z,19.20
2019-04-01T10:09:34.296Z,19.60
2019-04-01T10:12:02.770Z,18.00
2019-04-01T10:14:31.241Z,20.60
2019-04-01T10:16:59.690Z,20.80
2019-04-01T10:19:28.139Z,18.50
2019-04-01T10:21:56.618Z,19.40
2019-04-01T10:24:25.069Z,18.80
2019-04-01T10:26:53.826Z,19.30
2019-04-01T10:29:22.240Z,18.80
2019-04-01T10:31:50.733Z,16.10
2019-04-01T10:34:19.210Z,19.80
2019-04-01T10:36:48.062Z,18.90
2019-04-01T10:39:16.521Z,17.60
2019-04-01T10:41:45.342Z,16.60
2019-04-01T10:44:13.889Z,18.00
2019-04-01T10:46:42.406Z,17.80
2019-04-01T10:49:10.931Z,18.70
2019-04-01T10:51:39.455Z,18.00
2019-04-01T10:54:08.033Z,19.70
2019-04-01T10:56:36.857Z,17.30
2019-04-01T10:59:05.469Z,18.70
2019-04-01T11:01:34.106Z,16.80
2019-04-01T11:04:03.102Z,20.30
2019-04-01T11:06:31.563Z,18.50
2019-04-01T11:09:00.265Z,19.30
2019-04-01T11:11:29.171Z,18.80
2019-04-01T11:13:58.062Z,19.10
2019-04-01T11:16:26.514Z,20.10
2019-04-01T11:18:57.944Z,19.20
2019-04-01T11:21:25.189Z,17.20
2019-04-01T11:23:53.639Z,18.30
2019-04-01T11:26:22.116Z,17.20
2019-04-01T11:28:50.569Z,15.80
2019-04-01T11:31:19.030Z,20.60
2019-04-01T11:33:48.081Z,16.10
2019-04-01T11:36:16.609Z,17.00
2019-04-01T11:38:45.142Z,17.10
2019-04-01T11:41:13.691Z,20.00
2019-04-01T11:43:42.190Z,17.60
2019-04-01T11:46:12.503Z,18.00
2019-04-01T11:48:40.909Z,20.00
2019-04-01T11:51:09.506Z,18.60
2019-04-01T11:53:38.359Z,15.40
2019-04-01T11:56:06.879Z,15.10
2019-04-01T11:58:35.362Z,17.90
2019-04-01T12:01:03.890Z,15.80
2019-04-01T12:03:32.402Z,16.70
2019-04-01T12:06:01.181Z,16.40
2019-04-01T12:08:30.538Z,15.20
2019-04-01T12:10:59.137Z,15.80
2019-04-01T12:13:28.912Z,18.70
2019-04-01T12:15:57.537Z,17.30
2019-04-01T12:18:26.328Z,19.30
2019-04-01T12:20:54.892Z,16.40
2019-04-01T12:23:23.338Z,16.90
2019-04-01T12:25:51.794Z,17.20
2019-04-01T12:28:20.513Z,19.40
2019-04-01T12:30:49.045Z,17.10
2019-04-01T12:33:18.258Z,16.50
2019-04-01T12:35:46.961Z,18.10
2019-04-01T12:38:16.440Z,17.10
2019-04-01T12:40:45.069Z,15.40
2019-04-01T12:43:13.523Z,19.20
2019-04-01T12:45:42.141Z,20.30
2019-04-01T12:48:10.689Z,16.90
2019-04-01T12:50:39.145Z,19.60
2019-04-01T12:53:07.669Z,16.30
2019-04-01T12:55:36.146Z,18.90
2019-04-01T12:58:04.671Z,17.10
2019-04-01T13:00:33.122Z,17.20
2019-04-01T13:03:01.609Z,16.50
2019-04-01T13:05:30.062Z,16.90
2019-04-01T13:07:58.526Z,16.50
2019-04-01T13:10:27.085Z,16.00
2019-04-01T13:12:55.606Z,15.30
2019-04-01T13:15:24.125Z,17.60
2019-04-01T13:17:52.669Z,16.40
2019-04-01T13:20:21.147Z,15.10
2019-04-01T13:22:49.905Z,15.00
2019-04-01T13:25:18.430Z,16.70
2019-04-01T13:27:46.913Z,18.20
2019-04-01T13:30:15.429Z,16.00
2019-04-01T13:32:43.880Z,17.40
2019-04-01T13:35:12.421Z,17.30
2019-04-01T13:37:40.873Z,18.80
2019-04-01T13:40:10.970Z,18.30
2019-04-01T13:42:39.442Z,19.20
2019-04-01T13:45:08.395Z,17.80
2019-04-01T13:47:36.858Z,16.90
2019-04-01T13:50:07.135Z,16.30
2019-04-01T13:52:35.611Z,15.80
2019-04-01T13:55:05.105Z,15.80
2019-04-01T13:57:33.966Z,18.10
2019-04-01T14:00:02.782Z,18.90
2019-04-01T14:02:31.255Z,17.70
2019-04-01T14:05:00.026Z,20.10
2019-04-01T14:07:28.477Z,17.30
2019-04-01T14:09:56.931Z,17.10
2019-04-01T14:12:25.403Z,17.60
2019-04-01T14:14:54.258Z,19.20
2019-04-01T14:17:22.777Z,15.60
2019-04-01T14:19:51.229Z,18.30
2019-04-01T14:22:20.300Z,17.50
2019-04-01T14:24:49.181Z,18.80
2019-04-01T14:27:17.703Z,18.80
2019-04-01T14:29:46.173Z,17.50
2019-04-01T14:32:17.897Z,16.40
2019-04-01T14:34:45.526Z,18.30
2019-04-01T14:37:13.985Z,16.40
2019-04-01T14:39:42.757Z,17.40
2019-04-01T14:42:11.213Z,18.20
2019-04-01T14:44:39.677Z,17.60
2019-04-01T14:47:09.207Z,18.30
2019-04-01T14:49:37.837Z,18.00
2019-04-01T14:52:06.298Z,16.80
2019-04-01T14:54:34.773Z,18.20
2019-04-01T14:57:03.579Z,18.60
2019-04-01T14:59:32.055Z,16.60
2019-04-01T15:02:03.657Z,18.00
2019-04-01T15:04:31.172Z,16.00
2019-04-01T15:06:59.653Z,17.30
2019-04-01T15:09:28.113Z,16.20
2019-04-01T15:11:56.598Z,17.40
2019-04-01T15:14:25.110Z,18.70
2019-04-01T15:16:53.561Z,16.60
2019-04-01T15:19:22.343Z,18.60
2019-04-01T15:21:51.890Z,20.10
2019-04-01T15:24:20.852Z,17.40
2019-04-01T15:26:49.309Z,18.40
2019-04-01T15:29:17.791Z,18.40
2019-04-01T15:31:46.238Z,18.50
2019-04-01T15:34:14.709Z,18.00
2019-04-01T15:36:43.163Z,18.90
2019-04-01T15:39:13.399Z,21.00
2019-04-01T15:41:41.846Z,20.20
2019-04-01T15:44:10.295Z,19.60
2019-04-01T15:46:38.775Z,19.70
2019-04-01T15:49:11.014Z,19.50
2019-04-01T15:51:37.414Z,19.60
2019-04-01T15:54:06.034Z,19.30
2019-04-01T15:56:34.561Z,19.30
2019-04-01T15:59:03.093Z,20.20
2019-04-01T16:01:31.650Z,20.30
2019-04-01T16:04:00.432Z,20.40
2019-04-01T16:06:28.890Z,20.60
2019-04-01T16:08:57.379Z,18.10
2019-04-01T16:11:25.838Z,19.00
2019-04-01T16:13:54.374Z,19.80
2019-04-01T16:16:22.954Z,18.90
2019-04-01T16:18:51.467Z,20.90
2019-04-01T16:21:19.954Z,21.80
2019-04-01T16:23:48.406Z,21.50
2019-04-01T16:26:16.930Z,21.50
2019-04-01T16:28:45.483Z,20.90
2019-04-01T16:31:14.003Z,22.10
2019-04-01T16:33:42.819Z,20.80
2019-04-01T16:36:11.637Z,22.10
2019-04-01T16:38:40.496Z,19.60
2019-04-01T16:41:09.023Z,21.60
2019-04-01T16:43:38.295Z,22.40
2019-04-01T16:46:06.974Z,23.20
2019-04-01T16:48:35.423Z,22.90
2019-04-01T16:51:03.906Z,22.60
2019-04-01T16:53:32.716Z,20.40
2019-04-01T16:56:01.506Z,21.80
2019-04-01T16:58:29.995Z,21.30
2019-04-01T17:01:02.303Z,22.60
2019-04-01T17:03:29.083Z,22.90
2019-04-01T17:05:57.526Z,23.30
2019-04-01T17:08:29.538Z,21.60
2019-04-01T17:10:56.317Z,23.20
2019-04-01T17:13:24.844Z,22.90
2019-04-01T17:15:53.651Z,22.10
2019-04-01T17:18:22.591Z,23.20
2019-04-01T17:20:51.101Z,24.00
2019-04-01T17:23:19.554Z,21.70
2019-04-01T17:25:48.032Z,23.20
2019-04-01T17:28:16.508Z,23.10
2019-04-01T17:30:45.102Z,25.00
2019-04-01T17:33:13.621Z,25.50
2019-04-01T17:35:42.396Z,24.50
2019-04-01T17:38:13.698Z,22.90
2019-04-01T17:40:41.310Z,23.20
2019-04-01T17:43:13.176Z,24.50
2019-04-01T17:45:41.062Z,24.40
2019-04-01T17:48:09.938Z,24.60
2019-04-01T17:50:38.539Z,24.40
2019-04-01T17:53:09.349Z,24.90
2019-04-01T17:55:38.368Z,25.70
2019-04-01T17:58:12.933Z,26.10
2019-04-01T18:00:43.028Z,26.30
2019-04-01T18:03:11.618Z,25.90
2019-04-01T18:05:40.474Z,26.80
2019-04-01T18:08:09.001Z,28.10
2019-04-01T18:10:37.451Z,28.20
2019-04-01T18:13:06.334Z,27.10
2019-04-01T18:15:40.645Z,27.90
2019-04-01T18:18:10.022Z,28.00
2019-04-01T18:20:38.771Z,28.70
2019-04-01T18:23:07.593Z,28.70
2019-04-01T18:25:36.074Z,30.00
2019-04-01T18:28:04.612Z,29.10
2019-04-01T18:30:35.123Z,28.90
2019-04-01T18:33:03.917Z,29.90
2019-04-01T18:35:32.436Z,29.80
2019-04-01T18:38:00.883Z,30.00
2019-04-01T18:40:32.989Z,29.70
2019-04-01T18:43:00.169Z,30.70
2019-04-01T18:45:29.391Z,30.60
2019-04-01T18:47:57.941Z,30.60
2019-04-01T18:50:26.522Z,31.30
2019-04-01T18:52:54.976Z,30.80
2019-04-01T18:55:23.450Z,30.60
2019-04-01T18:57:51.905Z,31.20
2019-04-01T19:00:20.690Z,29.40
2019-04-01T19:02:49.150Z,29.90
2019-04-01T19:05:17.594Z,31.20
2019-04-01T19:07:46.434Z,31.30
2019-04-01T19:10:15.528Z,31.90
2019-04-01T19:12:44.018Z,32.00
2019-04-01T19:15:13.174Z,32.20
2019-04-01T19:17:42.267Z,32.40
2019-04-01T19:20:12.320Z,33.10
2019-04-01T19:22:40.768Z,32.50
2019-04-01T19:25:09.655Z,33.00
2019-04-01T19:27:38.197Z,33.20
2019-04-01T19:30:07.921Z,33.30
2019-04-01T19:32:38.149Z,33.10
2019-04-01T19:35:09.396Z,33.70
2019-04-01T19:37:38.156Z,33.90
2019-04-01T19:40:07.953Z,34.70
2019-04-01T19:42:39.284Z,33.60
2019-04-01T19:45:07.016Z,34.00
2019-04-01T19:47:35.970Z,33.40
2019-04-01T19:50:07.312Z,33.80
2019-04-01T19:52:35.933Z,33.40
2019-04-01T19:55:06.118Z,33.60
2019-04-01T19:57:34.566Z,33.90
2019-04-01T20:00:04.181Z,34.00
2019-04-01T20:02:34.197Z,34.40
2019-04-01T20:05:03.631Z,34.70
2019-04-01T20:07:32.176Z,34.00
2019-04-01T20:10:00.666Z,34.20
2019-04-01T20:12:29.153Z,34.30
2019-04-01T20:14:58.936Z,35.10
2019-04-01T20:17:27.570Z,34.70
2019-04-01T20:19:56.055Z,34.80
2019-04-01T20:22:25.956Z,36.10
2019-04-01T20:24:54.643Z,34.80
2019-04-01T20:27:23.097Z,34.50
2019-04-01T20:29:51.638Z,33.80
2019-04-01T20:32:20.571Z,34.00
2019-04-01T20:34:56.963Z,34.00
2019-04-01T20:37:19.552Z,34.40
2019-04-01T20:39:48.001Z,34.10
2019-04-01T20:42:17.223Z,35.00
2019-04-01T20:44:46.035Z,34.60
2019-04-01T20:47:14.485Z,34.20
2019-04-01T20:49:42.932Z,34.30
2019-04-01T20:52:11.835Z,34.90
2019-04-01T20:54:40.287Z,34.70
2019-04-01T20:57:08.734Z,34.90
2019-04-01T20:59:37.295Z,35.30
2019-04-01T21:02:05.818Z,35.00
2019-04-01T21:04:34.266Z,34.90
2019-04-01T21:07:02.704Z,35.80
2019-04-01T21:09:31.194Z,37.40
2019-04-01T21:11:59.643Z,35.50
2019-04-01T21:14:28.117Z,35.50
2019-04-01T21:16:56.570Z,36.10
2019-04-01T21:19:25.341Z,35.80
2019-04-01T21:21:54.106Z,35.10
2019-04-01T21:24:22.910Z,35.10
2019-04-01T21:26:51.359Z,34.90
2019-04-01T21:29:20.156Z,35.00
2019-04-01T21:31:48.958Z,35.00
2019-04-01T21:34:17.406Z,35.20
2019-04-01T21:36:45.946Z,35.40
2019-04-01T21:39:14.701Z,36.10
2019-04-01T21:41:43.486Z,36.20
2019-04-01T21:44:11.962Z,35.40
2019-04-01T21:46:40.759Z,36.10
2019-04-01T21:49:09.219Z,36.40
2019-04-01T21:51:38.134Z,37.70
2019-04-01T21:54:06.576Z,36.20
2019-04-01T21:56:35.026Z,36.40
2019-04-01T21:59:03.505Z,36.70
2019-04-01T22:01:32.393Z,35.90
2019-04-01T22:04:00.918Z,36.10
2019-04-01T22:06:29.390Z,36.30
2019-04-01T22:08:57.855Z,36.60
2019-04-01T22:11:26.710Z,36.80
2019-04-01T22:13:56.075Z,36.90
2019-04-01T22:16:24.656Z,36.80
2019-04-01T22:18:53.120Z,37.10
2019-04-01T22:21:21.847Z,36.90
2019-04-01T22:23:50.295Z,37.00
2019-04-01T22:26:19.134Z,37.40
2019-04-01T22:28:47.610Z,37.70
2019-04-01T22:31:16.142Z,37.50
2019-04-01T22:33:44.972Z,36.60
2019-04-01T22:36:13.494Z,36.50
2019-04-01T22:38:41.964Z,37.10
2019-04-01T22:41:10.413Z,37.80
2019-04-01T22:43:38.862Z,37.40
2019-04-01T22:46:07.381Z,37.40
2019-04-01T22:48:35.830Z,37.60
2019-04-01T22:51:04.439Z,37.30
2019-04-01T22:53:33.321Z,37.70
2019-04-01T22:56:02.542Z,37.80
2019-04-01T22:58:31.058Z,37.70
2019-04-01T23:00:59.579Z,37.30
2019-04-01T23:03:28.026Z,37.00
2019-04-01T23:05:56.477Z,37.80
2019-04-01T23:08:24.937Z,38.10
2019-04-01T23:10:53.454Z,39.30
2019-04-01T23:13:21.889Z,38.90
2019-04-01T23:15:50.382Z,38.30
2019-04-01T23:18:18.830Z,38.10
2019-04-01T23:20:48.203Z,38.40
2019-04-01T23:23:16.966Z,38.00
2019-04-01T23:25:45.430Z,38.90
2019-04-01T23:28:13.902Z,39.30
2019-04-01T23:30:42.702Z,39.00
2019-04-01T23:33:11.507Z,38.00
2019-04-01T23:35:39.992Z,38.60
2019-04-01T23:38:08.516Z,38.20
2019-04-01T23:40:37.340Z,38.30
2019-04-01T23:43:05.818Z,38.00
2019-04-01T23:45:34.340Z,38.40
2019-04-01T23:48:02.796Z,38.90
2019-04-01T23:50:31.338Z,38.20
2019-04-01T23:52:59.790Z,39.10
2019-04-01T23:55:29.206Z,38.70
2019-04-01T23:57:58.162Z,38.80
